METAR Data
IDs: Format: Raw Decoded Include TAF

Data at: 1335 UTC 21 Oct 2018

KRAS 211315Z AUTO 02017G21KT 10SM OVC017 19/16 A3018 RMK AO2 T01860158
KRAS 211255Z AUTO 02016KT 10SM OVC017 19/16 A3018 RMK AO2 T01860159
KRAS 211235Z AUTO 01019G22KT 10SM OVC015 19/16 A3018 RMK AO2 T01860159
KRAS 211215Z AUTO 02015KT 10SM OVC015 19/16 A3018 RMK AO2 T01860160
KRAS 211155Z AUTO 02015KT 10SM OVC013 19/16 A3017 RMK AO2 T01860161 10191 20186
KRAS 211135Z AUTO 02018G24KT 10SM OVC013 19/16 A3016 RMK AO2 T01870164
KRAS 211115Z AUTO 02016G21KT 10SM OVC013 19/17 A3015 RMK AO2 T01870166
KRAS 211055Z AUTO 02016G19KT 10SM OVC015 19/17 A3015 RMK AO2 T01870166
KRAS 211035Z AUTO 01014G22KT 10SM OVC013 19/17 A3015 RMK AO2 T01880167
KRAS 211015Z AUTO 01015G20KT 10SM OVC013 19/17 A3015 RMK AO2 T01880168
KRAS 210955Z AUTO 01014G21KT 10SM OVC013 19/17 A3015 RMK AO2 T01880169
KRAS 210935Z AUTO 01018KT 10SM OVC011 19/17 A3015 RMK AO2 T01880168
KRAS 210915Z AUTO 02016KT 10SM OVC009 19/17 A3015 RMK AO2 T01880171
KRAS 210855Z AUTO 01016KT 10SM OVC009 19/17 A3016 RMK AO2 T01890173
KRAS 210835Z AUTO 01015KT 10SM OVC011 19/17 A3016 RMK AO2 T01890173
KRAS 210815Z AUTO 01013G16KT 10SM OVC011 19/17 A3016 RMK AO2 T01900173
KRAS 210755Z AUTO 01017KT 10SM OVC009 19/17 A3016 RMK AO2 T01890171
KRAS 210735Z AUTO 02016G21KT 10SM OVC009 19/17 A3017 RMK AO2 T01890172
KRAS 210715Z AUTO 01012KT 10SM OVC009 19/17 A3017 RMK AO2 T01900174
KRAS 210655Z AUTO 02015KT 10SM OVC007 19/17 A3016 RMK AO2 T01890174
KRAS 210635Z AUTO 02016KT 10SM OVC007 19/17 A3016 RMK AO2 T01880174
KRAS 210615Z AUTO 01019G26KT 10SM OVC007 19/18 A3016 RMK AO2 T01890175
KRAS 210555Z AUTO 01016G21KT 10SM OVC007 19/18 A3016 RMK AO2 T01900176 10217 20189
KRAS 210535Z AUTO 36018KT 10SM OVC009 19/18 A3017 RMK AO2 T01910175
KRAS 210515Z AUTO 36017KT 10SM OVC009 19/18 A3017 RMK AO2 T01940177
KRAS 210455Z AUTO 02017G24KT 10SM OVC011 20/18 A3016 RMK AO2 T01950176
KRAS 210435Z AUTO 01018KT 10SM OVC011 20/18 A3016 RMK AO2 T01970177
KRAS 210415Z AUTO 01016G20KT 10SM OVC011 20/18 A3017 RMK AO2 T01980178
KRAS 210355Z AUTO 36018G22KT 10SM OVC011 20/18 A3016 RMK AO2 T01990180
KRAS 210335Z AUTO 01019G23KT 10SM OVC013 20/18 A3016 RMK AO2 T02000179
KRAS 210315Z AUTO 01017G20KT 10SM OVC015 20/18 A3016 RMK AO2 T02030181
KRAS 210255Z AUTO 36015G19KT 10SM OVC015 20/18 A3015 RMK AO2 T02050183
KRAS 210235Z AUTO 36013G19KT 10SM SCT017 OVC026 21/19 A3014 RMK AO2 T02100187
KRAS 210215Z AUTO 01015G19KT 10SM OVC026 21/19 A3014 RMK AO2 T02110187
KRAS 210155Z AUTO 36015KT 10SM OVC026 21/19 A3013 RMK AO2 LTG DSNT SE T02110187
KRAS 210135Z AUTO 01013G21KT 10SM BKN024 OVC028 21/19 A3013 RMK AO2 LTG DSNT E T02110188
KRAS 210115Z AUTO 36021KT 10SM SCT015 OVC022 21/19 A3012 RMK AO2 T02120189
KRAS 210055Z AUTO 36014KT 10SM OVC020 21/19 A3012 RMK AO2 T02130191
KRAS 210035Z AUTO 01015KT 10SM OVC020 21/19 A3011 RMK AO2 T02140189
KRAS 210015Z AUTO 01017KT 10SM BKN015 OVC020 22/19 A3010 RMK AO2 LTG DSNT E T02160194
KRAS 202355Z AUTO 01013KT 10SM OVC015 22/20 A3009 RMK AO2 LTG DSNT E T02180198 10226 20213 402440195
KRAS 202335Z AUTO 36016KT 10SM OVC015 22/19 A3008 RMK AO2 T02200195
KRAS 202315Z AUTO 36014KT 10SM OVC015 22/20 A3008 RMK AO2 LTG DSNT E T02240202
KRAS 202255Z AUTO 01010KT 10SM BKN015 OVC021 22/20 A3007 RMK AO2 LTG DSNT E T02230202
KRAS 202235Z AUTO 36012KT 10SM SCT015 OVC024 22/20 A3006 RMK AO2 LTG DSNT E T02230201
KRAS 202215Z AUTO 36013KT 10SM OVC022 22/20 A3006 RMK AO2 T02220202
KRAS 202155Z AUTO 36011KT 10SM OVC020 22/20 A3006 RMK AO2 T02220203
KRAS 202135Z AUTO 36012KT 10SM BKN014 OVC018 22/20 A3006 RMK AO2 T02210204
KRAS 202115Z AUTO 35011KT 10SM SCT006 OVC014 22/21 A3006 RMK AO2 T02160205
KRAS 202055Z AUTO 34012KT 7SM SCT006 OVC012 21/21 A3006 RMK AO2 T02150206
KRAS 202035Z AUTO 34012KT 10SM BKN008 OVC012 21/20 A3006 RMK AO2 T02140203
KRAS 202015Z AUTO 34011KT 10SM BKN008 OVC013 22/20 A3006 RMK AO2 T02160203
KRAS 201955Z AUTO 35010KT 10SM OVC011 22/20 A3006 RMK AO2 T02190203
KRAS 201935Z AUTO 35010KT 7SM OVC009 22/21 A3006 RMK AO2 T02200206
KRAS 201915Z AUTO 35011KT 10SM OVC009 22/20 A3006 RMK AO2 T02230201
KRAS 201855Z AUTO 35010KT 10SM OVC009 22/20 A3007 RMK AO2 T02190200
KRAS 201835Z AUTO 35011KT 10SM OVC009 22/20 A3008 RMK AO2 T02180199
KRAS 201815Z AUTO 36009KT 10SM OVC009 22/20 A3009 RMK AO2 T02160199
KRAS 201755Z AUTO 36011KT 10SM OVC009 21/20 A3010 RMK AO2 T02150197 10215 20195
KRAS 201735Z AUTO 35011KT 10SM OVC009 21/19 A3010 RMK AO2 T02100195
KRAS 201715Z AUTO 36013KT 7SM OVC007 21/19 A3011 RMK AO2 T02060195
KRAS 201655Z AUTO 36011KT 5SM -RA BR OVC007 20/19 A3012 RMK AO2 T02040195
KRAS 201635Z AUTO 36013KT 10SM OVC007 21/19 A3012 RMK AO2 T02060192
KRAS 201615Z AUTO 35013KT 10SM OVC005 21/19 A3012 RMK AO2 T02070194
KRAS 201555Z AUTO 35015KT 10SM OVC005 20/19 A3012 RMK AO2 LTG DSNT E AND SE T02030192
KRAS 201535Z AUTO 34015KT 10SM OVC005 20/19 A3012 RMK AO2 T02040194
KRAS 201515Z AUTO 34013KT 10SM OVC005 20/19 A3012 RMK AO2 T02030194
KRAS 201455Z AUTO 35014KT 10SM OVC005 20/19 A3011 RMK AO2 T02020193
KRAS 201435Z AUTO 35012KT 10SM OVC003 20/19 A3011 RMK AO2 T02010193
KRAS 201415Z AUTO 35013KT 10SM OVC003 20/19 A3010 RMK AO2 T02000192
KRAS 201355Z AUTO 34012KT 10SM OVC003 20/19 A3009 RMK AO2 T01990192
KRAS 201335Z AUTO 35011KT 10SM OVC003 20/19 A3009 RMK AO2 T01970190
KRAS 201315Z AUTO 33011KT 10SM OVC003 20/19 A3009 RMK AO2 T01960190
KRAS 201255Z AUTO 33012KT 10SM OVC003 20/19 A3009 RMK AO2 LTG DSNT E T01960190
KRAS 201235Z AUTO 33012KT 10SM OVC003 20/19 A3008 RMK AO2 T01950190
KRAS 201215Z AUTO 33009KT 10SM OVC003 20/19 A3008 RMK AO2 T01960192
KRAS 201155Z AUTO 32010KT 7SM BR OVC003 20/19 A3007 RMK AO2 T01980194 10221 20197 70072
KRAS 201135Z AUTO 31009KT 7SM BR OVC003 20/19 A3006 RMK AO2 T01990195
KRAS 201115Z AUTO 32008KT 7SM OVC003 20/20 A3005 RMK AO2 T02000195
KRAS 201055Z AUTO 33008KT 10SM OVC003 20/20 A3005 RMK AO2 T02000195
KRAS 201035Z AUTO 33008KT 10SM OVC003 20/20 A3004 RMK AO2 T02010196
KRAS 201015Z AUTO 34009KT 7SM OVC003 20/20 A3004 RMK AO2 T02000196
KRAS 200955Z AUTO 35007KT 4SM BR OVC003 20/20 A3004 RMK AO2 T02000197
KRAS 200935Z AUTO 35007KT 5SM VCTSBR OVC003 20/20 A3004 RMK AO2 T02010197
KRAS 200915Z AUTO 34010KT 4SM VCTSBR OVC003 20/20 A3005 RMK AO2 LTG DSNT E T02010197
KRAS 200855Z AUTO 34009KT 3 1/2SM BR OVC003 20/20 A3005 RMK AO2
KRAS 200835Z AUTO 34010KT 7SM OVC003 20/20 A3005 RMK AO2 T02030199
KRAS 200815Z AUTO 34009KT 7SM OVC003 20/20 A3005 RMK AO2 T02050200
KRAS 200755Z AUTO 34011KT 7SM OVC003 21/20 A3005 RMK AO2 T02070203
KRAS 200735Z AUTO 34010KT 10SM OVC003 21/20 A3005 RMK AO2 T02090204
KRAS 200715Z AUTO 34009KT 10SM OVC003 21/21 A3006 RMK AO2 LTG DSNT SE T02090205
KRAS 200655Z AUTO 34010KT 7SM BR OVC003 21/21 A3006 RMK AO2 LTG DSNT NE T02100207
KRAS 200635Z AUTO 35011KT 2SM BR OVC003 21/21 A3006 RMK AO2 T02120209
KRAS 200615Z AUTO 35009KT 2 1/2SM BR OVC003 22/21 A3006 RMK AO2 LTG DSNT NE AND SE T02160213
KRAS 200555Z AUTO 35010KT 1SM BR OVC003 22/22 A3006 RMK AO2 T02210217 10244 20219
KRAS 200535Z AUTO 36009KT 7SM BR OVC003 23/22 A3006 RMK AO2 T02270223
KRAS 200515Z AUTO 01011KT 7SM BKN003 OVC007 23/22 A3006 RMK AO2 T02280224
KRAS 200455Z AUTO 01008KT 10SM OVC005 23/22 A3006 RMK AO2 T02270223
KRAS 200435Z AUTO 02007KT 10SM OVC005 23/22 A3006 RMK AO2 T02290225
KRAS 200415Z AUTO 36006KT 10SM OVC003 23/22 A3006 RMK AO2 T02280224
KRAS 200355Z AUTO 32006KT 7SM BR OVC003 23/22 A3006 RMK AO2 T02260222
KRAS 200335Z AUTO 31006KT 4SM BR OVC003 23/22 A3006 RMK AO2 T02270222
KRAS 200315Z AUTO 27005KT 5SM BR OVC003 22/22 A3006 RMK AO2 T02230216
KRAS 200255Z AUTO 27005KT 5SM BR OVC003 22/21 A3006 RMK AO2 T02210214
KRAS 200235Z AUTO 27006KT 5SM BR OVC003 22/21 A3006 RMK AO2 T02200212
KRAS 200215Z AUTO 26006KT 7SM BR OVC005 22/21 A3005 RMK AO2 T02220214
KRAS 200155Z AUTO 27005KT 7SM BR OVC005 22/22 A3005 RMK AO2 T02240217